Alvarado, Indiana
Current Conditions -  °F | °C
As of 5:15 PM on Saturday 25 Oct 2014 (Local Time) from KANQ Reporting Station
NA  
Wind Chill: 66°   Ceiling: NA
Heat Index: 66°   Visibility: NA
Dew Point: 59°   Wind: 10mph
Humidity: 78%   Direction: 300°WNW
Pressure: 29.85"   Gusts: NA
Location:  41.5557°N, 84.8806°W
Report Text: KANQ 252115Z AUTO 30009KT 19/15 A2985 RMK
Loading
Personal Weather Stations






























Interactive Weather Map New forecast layout! Learn more

10-Day Weather Forecast

Advertisements
Track Severe Weather on mobile